Time;durP1;ratioP1;P1;durP2;ratioP2;P2;SDS_P1;SDS_P2;PMS_P1;PMS_P2;Temp;Humidity;BMP_temperature;BMP_pressure;BME280_temperature;BME280_humidity;BME280_pressure;Samples;Min_cycle;Max_cycle;Signal;HPM_P1;HPM_P2
2023/05/08 00:00:26;;;;;;;23.83;18.67;;;13.90;99.90;;;;;;5134182;27;20196;-72
2023/05/08 00:02:52;;;;;;;25.35;18.70;;;13.90;99.90;;;;;;5134259;27;20554;-72
2023/05/08 00:05:18;;;;;;;22.42;19.20;;;13.90;99.90;;;;;;5134868;27;20214;-72
2023/05/08 00:07:43;;;;;;;22.75;18.35;;;13.80;99.90;;;;;;5134551;27;20699;-74
2023/05/08 00:10:09;;;;;;;22.67;17.65;;;13.80;99.90;;;;;;5133900;27;20203;-74
2023/05/08 00:12:36;;;;;;;26.92;19.27;;;13.80;99.90;;;;;;5135028;27;20647;-74
2023/05/08 00:15:03;;;;;;;27.20;18.65;;;13.80;99.90;;;;;;5135441;27;20578;-74
2023/05/08 00:17:29;;;;;;;21.63;17.70;;;13.80;99.90;;;;;;5134485;27;20211;-72
2023/05/08 00:19:55;;;;;;;25.85;19.38;;;13.80;99.90;;;;;;5135923;27;20246;-70
2023/05/08 00:22:21;;;;;;;23.48;18.75;;;13.80;99.90;;;;;;5134010;27;20186;-70
2023/05/08 00:24:47;;;;;;;23.77;18.77;;;13.80;99.90;;;;;;5135169;27;20175;-70
2023/05/08 00:27:12;;;;;;;25.48;19.63;;;13.70;99.90;;;;;;5136012;27;20171;-70
2023/05/08 00:29:42;;;;;;;24.80;19.40;;;13.70;99.90;;;;;;5135568;27;20171;-70
2023/05/08 00:32:08;;;;;;;26.75;19.23;;;13.70;99.90;;;;;;5133748;27;20172;-72
2023/05/08 00:34:35;;;;;;;27.33;20.85;;;13.70;99.90;;;;;;5133800;28;20176;-73
2023/05/08 00:37:02;;;;;;;25.85;18.90;;;13.70;99.90;;;;;;5133962;28;20207;-72
2023/05/08 00:39:28;;;;;;;25.13;18.60;;;13.70;99.90;;;;;;5133692;28;20175;-72
2023/05/08 00:41:53;;;;;;;23.65;18.90;;;13.70;99.90;;;;;;5135090;27;20239;-72
2023/05/08 00:44:19;;;;;;;26.80;19.45;;;13.80;99.90;;;;;;5133519;28;20206;-72
2023/05/08 00:46:45;;;;;;;24.08;17.92;;;13.80;99.90;;;;;;5134677;27;20180;-72
2023/05/08 00:49:13;;;;;;;22.35;18.60;;;13.80;99.90;;;;;;5133504;27;20176;-72
2023/05/08 00:51:49;;;;;;;21.42;18.23;;;13.80;99.90;;;;;;5135522;27;20348;-71
2023/05/08 00:54:16;;;;;;;24.90;18.55;;;13.90;99.90;;;;;;5133567;28;20198;-71
2023/05/08 00:56:42;;;;;;;24.50;18.63;;;13.80;99.90;;;;;;5134203;27;20697;-71
2023/05/08 00:59:10;;;;;;;25.95;19.67;;;13.90;99.90;;;;;;5136240;27;20172;-70
2023/05/08 01:01:43;;;;;;;24.67;20.08;;;13.90;99.90;;;;;;5138272;27;20248;-71
2023/05/08 01:04:10;;;;;;;23.88;19.65;;;13.90;99.90;;;;;;5138948;27;20180;-71
2023/05/08 01:06:36;;;;;;;26.50;20.20;;;13.80;99.90;;;;;;5118894;27;20184;-74
2023/05/08 01:09:02;;;;;;;26.33;20.33;;;13.80;99.90;;;;;;5117737;28;20172;-74
2023/05/08 01:11:48;;;;;;;23.70;19.83;;;13.80;99.90;;;;;;5117529;28;20210;-73
2023/05/08 01:14:52;;;;;;;24.50;19.13;;;13.80;99.90;;;;;;5116457;28;20553;-72
2023/05/08 01:17:43;;;;;;;27.95;19.80;;;13.80;99.90;;;;;;5115832;27;20200;-72
2023/05/08 01:20:24;;;;;;;23.55;18.50;;;13.80;99.90;;;;;;5116981;28;20267;-72
2023/05/08 01:23:29;;;;;;;28.13;19.73;;;13.80;99.90;;;;;;5115983;28;20196;-72
2023/05/08 01:26:21;;;;;;;25.88;19.02;;;13.80;99.90;;;;;;5114938;28;20222;-72
2023/05/08 01:28:56;;;;;;;24.60;18.90;;;13.80;99.90;;;;;;5116307;28;20224;-73
2023/05/08 01:31:22;;;;;;;24.42;18.90;;;13.80;99.90;;;;;;5116483;28;20253;-74
2023/05/08 01:33:50;;;;;;;24.58;19.00;;;13.80;99.90;;;;;;5115844;28;20177;-74
2023/05/08 01:36:33;;;;;;;31.13;21.77;;;13.70;99.90;;;;;;5132728;27;20242;-74
2023/05/08 01:39:18;;;;;;;24.50;18.85;;;13.70;99.90;;;;;;5137749;27;20221;-76
2023/05/08 01:42:03;;;;;;;24.20;19.27;;;13.70;99.90;;;;;;5136088;27;20709;-76
2023/05/08 01:44:37;;;;;;;27.75;20.98;;;13.70;99.90;;;;;;5137479;27;20229;-76
2023/05/08 01:47:10;;;;;;;26.40;19.60;;;13.70;99.90;;;;;;5136145;27;20176;-70
2023/05/08 01:49:47;;;;;;;25.55;20.80;;;13.70;99.90;;;;;;5137015;27;20160;-70
2023/05/08 01:52:26;;;;;;;26.33;20.45;;;13.70;99.90;;;;;;5137239;27;20156;-70
2023/05/08 01:55:00;;;;;;;27.77;20.30;;;13.70;99.90;;;;;;5136003;27;20171;-70
2023/05/08 01:57:28;;;;;;;24.05;19.75;;;13.70;99.90;;;;;;5136971;27;20187;-70
2023/05/08 01:59:57;;;;;;;28.48;21.65;;;13.70;99.90;;;;;;5136711;27;20179;-71
2023/05/08 02:02:24;;;;;;;25.95;20.75;;;13.70;99.90;;;;;;5136687;27;20281;-70
2023/05/08 02:04:52;;;;;;;25.35;19.42;;;13.60;99.90;;;;;;5132591;27;20180;-70
2023/05/08 02:07:21;;;;;;;27.17;21.15;;;13.60;99.90;;;;;;5116189;28;20196;-70
2023/05/08 02:09:47;;;;;;;27.27;20.67;;;13.60;99.90;;;;;;5114294;27;20187;-71
2023/05/08 02:12:15;;;;;;;27.73;21.17;;;13.60;99.90;;;;;;5115103;28;20567;-70
2023/05/08 02:14:42;;;;;;;26.42;20.48;;;13.60;99.90;;;;;;5116252;28;20257;-70
2023/05/08 02:17:09;;;;;;;23.42;19.33;;;13.60;99.90;;;;;;5114495;28;20207;-70
2023/05/08 02:19:39;;;;;;;26.02;20.63;;;13.50;99.90;;;;;;5115925;28;20176;-70
2023/05/08 02:22:07;;;;;;;25.02;20.25;;;13.60;99.90;;;;;;5116982;28;20184;-70
2023/05/08 02:24:34;;;;;;;25.40;20.13;;;13.60;99.90;;;;;;5114583;28;20176;-70
2023/05/08 02:27:01;;;;;;;25.02;20.05;;;13.60;99.90;;;;;;5115806;28;20542;-70
2023/05/08 02:29:28;;;;;;;27.70;18.73;;;13.50;99.90;;;;;;5114377;28;20172;-70
2023/05/08 02:31:55;;;;;;;25.00;20.38;;;13.50;99.90;;;;;;5115631;28;20241;-70
2023/05/08 02:34:23;;;;;;;27.48;20.77;;;13.50;99.90;;;;;;5115370;28;20172;-74
2023/05/08 02:36:53;;;;;;;25.85;19.58;;;13.50;99.90;;;;;;5095028;28;20196;-73
2023/05/08 02:39:24;;;;;;;23.75;19.58;;;13.50;99.90;;;;;;5093867;28;20188;-72
2023/05/08 02:41:50;;;;;;;27.90;20.13;;;13.50;99.90;;;;;;5094924;28;20197;-73
2023/05/08 02:44:15;;;;;;;26.45;20.85;;;13.40;99.90;;;;;;5095236;28;20222;-73
2023/05/08 02:47:01;;;;;;;25.27;19.55;;;13.40;99.90;;;;;;5094912;28;20197;-73
2023/05/08 02:49:45;;;;;;;25.63;20.05;;;13.40;99.90;;;;;;5094253;28;20572;-74
2023/05/08 02:52:34;;;;;;;29.83;20.80;;;13.50;99.90;;;;;;5095238;28;20164;-73
2023/05/08 02:55:08;;;;;;;29.20;20.75;;;13.50;99.90;;;;;;5095106;28;20654;-73
2023/05/08 02:57:50;;;;;;;25.80;19.80;;;13.50;99.90;;;;;;5093601;28;20303;-76
2023/05/08 03:00:22;;;;;;;25.17;19.30;;;13.50;99.90;;;;;;5093364;28;20662;-75
2023/05/08 03:03:00;;;;;;;27.67;20.42;;;13.50;99.90;;;;;;5093466;28;20192;-76
2023/05/08 03:05:32;;;;;;;24.02;19.38;;;13.50;99.90;;;;;;5112549;27;20646;-76
2023/05/08 03:08:14;;;;;;;29.13;19.52;;;13.50;99.90;;;;;;5135926;27;20692;-76
2023/05/08 03:10:43;;;;;;;24.92;19.90;;;13.40;99.90;;;;;;5135733;27;20195;-76
2023/05/08 03:13:12;;;;;;;26.10;19.73;;;13.40;99.90;;;;;;5135839;27;20175;-76
2023/05/08 03:15:45;;;;;;;24.85;19.45;;;13.40;99.90;;;;;;5134223;27;20267;-75
2023/05/08 03:18:16;;;;;;;25.27;19.23;;;13.40;99.90;;;;;;5134234;27;20175;-75
2023/05/08 03:20:46;;;;;;;24.48;18.92;;;13.30;99.90;;;;;;5134426;27;20192;-75
2023/05/08 03:23:14;;;;;;;27.13;19.65;;;13.30;99.90;;;;;;5135918;27;20257;-70
2023/05/08 03:25:42;;;;;;;24.13;18.83;;;13.30;99.90;;;;;;5133998;27;20204;-70
2023/05/08 03:28:09;;;;;;;23.60;18.85;;;13.30;99.90;;;;;;5135247;27;20517;-70
2023/05/08 03:30:40;;;;;;;22.30;17.70;;;13.30;99.90;;;;;;5135396;27;20222;-70
2023/05/08 03:33:07;;;;;;;22.50;18.33;;;13.30;99.90;;;;;;5136439;27;20156;-70
2023/05/08 03:35:37;;;;;;;25.02;19.17;;;13.30;99.90;;;;;;5124829;27;20180;-70
2023/05/08 03:38:03;;;;;;;24.50;19.80;;;13.30;99.90;;;;;;5113150;28;20200;-70
2023/05/08 03:40:29;;;;;;;24.90;19.77;;;13.20;99.90;;;;;;5113168;28;20665;-70
2023/05/08 03:42:56;;;;;;;25.38;19.05;;;13.20;99.90;;;;;;5112998;28;20177;-70
2023/05/08 03:45:23;;;;;;;28.52;20.83;;;13.20;99.90;;;;;;5114267;28;20183;-70
2023/05/08 03:47:52;;;;;;;29.67;20.50;;;13.20;99.90;;;;;;5114124;28;20221;-70
2023/05/08 03:50:19;;;;;;;25.42;19.25;;;13.10;99.90;;;;;;5113917;28;20267;-76
2023/05/08 03:52:45;;;;;;;26.77;20.23;;;13.20;99.90;;;;;;5114302;28;20214;-76
2023/05/08 03:55:10;;;;;;;23.63;19.58;;;13.20;99.90;;;;;;5114450;28;20169;-76
2023/05/08 03:57:49;;;;;;;22.58;18.70;;;13.20;99.90;;;;;;5114322;28;20207;-76
2023/05/08 04:00:30;;;;;;;25.40;19.05;;;13.20;99.90;;;;;;5113047;28;20567;-76
2023/05/08 04:03:23;;;;;;;22.45;18.02;;;13.20;99.90;;;;;;5114446;28;20215;-72
2023/05/08 04:05:58;;;;;;;26.38;18.27;;;13.20;99.90;;;;;;5125913;27;20195;-73
2023/05/08 04:08:31;;;;;;;26.40;19.88;;;13.20;99.90;;;;;;5133482;27;20169;-73
2023/05/08 04:11:24;;;;;;;24.77;19.25;;;13.20;99.90;;;;;;5135229;27;20644;-73
2023/05/08 04:13:59;;;;;;;23.85;18.30;;;13.20;99.90;;;;;;5133359;27;20175;-73
2023/05/08 04:16:36;;;;;;;31.27;20.92;;;13.20;99.90;;;;;;5133232;27;20230;-73
2023/05/08 04:19:09;;;;;;;23.30;19.17;;;13.10;99.90;;;;;;5134833;27;20217;-73
2023/05/08 04:21:38;;;;;;;24.50;18.55;;;13.10;99.90;;;;;;5134648;27;20191;-73
2023/05/08 04:24:07;;;;;;;21.45;17.20;;;13.20;99.90;;;;;;5133282;28;20199;-74
2023/05/08 04:26:33;;;;;;;23.67;17.85;;;13.20;99.90;;;;;;5134430;27;20168;-73
2023/05/08 04:28:59;;;;;;;21.90;17.98;;;13.30;99.90;;;;;;5133471;28;20547;-73
2023/05/08 04:31:26;;;;;;;22.42;18.20;;;13.30;99.90;;;;;;5133464;27;20194;-73
2023/05/08 04:33:53;;;;;;;22.33;18.77;;;13.30;99.90;;;;;;5138340;27;20276;-73
2023/05/08 04:36:19;;;;;;;24.42;18.77;;;13.30;99.90;;;;;;5137083;27;20618;-73
2023/05/08 04:38:45;;;;;;;24.83;19.30;;;13.30;99.90;;;;;;5137624;27;20184;-76
2023/05/08 04:41:11;;;;;;;25.50;18.02;;;13.30;99.90;;;;;;5138437;27;20192;-76
2023/05/08 04:43:37;;;;;;;24.85;18.23;;;13.30;99.90;;;;;;5138750;27;20170;-76
2023/05/08 04:46:05;;;;;;;22.67;18.27;;;13.40;99.90;;;;;;5138205;27;20175;-76
2023/05/08 04:48:32;;;;;;;23.58;18.15;;;13.40;99.90;;;;;;5138347;27;20167;-76
2023/05/08 04:50:58;;;;;;;21.77;18.05;;;13.40;99.90;;;;;;5138222;27;20686;-76
2023/05/08 04:53:24;;;;;;;22.88;17.23;;;13.40;99.90;;;;;;5137141;27;20186;-76
2023/05/08 04:55:51;;;;;;;21.65;17.90;;;13.40;99.90;;;;;;5138102;27;20251;-76
2023/05/08 04:58:16;;;;;;;27.23;18.55;;;13.40;99.90;;;;;;5138103;27;20164;-76
2023/05/08 05:00:42;;;;;;;24.67;18.60;;;13.40;99.90;;;;;;5138099;27;20238;-76
2023/05/08 05:03:08;;;;;;;23.67;18.40;;;13.50;99.90;;;;;;5138716;27;20241;-76
2023/05/08 05:05:37;;;;;;;21.92;17.80;;;13.50;99.90;;;;;;5137990;27;20176;-76
2023/05/08 05:08:03;;;;;;;22.77;17.45;;;13.60;99.90;;;;;;5138582;27;20196;-76
2023/05/08 05:10:30;;;;;;;21.33;16.67;;;13.60;99.90;;;;;;5136800;27;20230;-74
2023/05/08 05:12:55;;;;;;;21.92;16.13;;;13.60;99.90;;;;;;5138500;27;20585;-74
2023/05/08 05:15:21;;;;;;;20.13;16.38;;;13.70;99.90;;;;;;5136559;27;20275;-74
2023/05/08 05:17:47;;;;;;;20.65;16.92;;;13.70;99.90;;;;;;5136409;27;20705;-74
2023/05/08 05:20:13;;;;;;;21.65;16.33;;;13.70;99.90;;;;;;5136287;27;20192;-74
2023/05/08 05:22:39;;;;;;;19.40;15.88;;;13.80;99.90;;;;;;5137577;27;20713;-73
2023/05/08 05:25:06;;;;;;;19.15;15.73;;;13.80;99.90;;;;;;5136095;27;20565;-74
2023/05/08 05:27:37;;;;;;;22.73;16.85;;;13.90;99.90;;;;;;5136315;27;20186;-74
2023/05/08 05:30:03;;;;;;;24.83;16.67;;;13.90;99.90;;;;;;5137736;27;20156;-74
2023/05/08 05:32:29;;;;;;;19.95;15.45;;;14.00;99.90;;;;;;5137768;27;20187;-74
2023/05/08 05:34:55;;;;;;;19.55;15.95;;;14.00;99.90;;;;;;5137173;27;20206;-74
2023/05/08 05:37:21;;;;;;;21.73;16.45;;;14.10;99.90;;;;;;5137603;27;20184;-74
2023/05/08 05:39:47;;;;;;;21.15;15.98;;;14.10;99.90;;;;;;5136095;27;20232;-74
2023/05/08 05:42:14;;;;;;;22.27;16.05;;;14.10;99.90;;;;;;5136318;27;20216;-75
2023/05/08 05:44:39;;;;;;;19.90;15.50;;;14.20;99.90;;;;;;5136629;27;20179;-74
2023/05/08 05:47:08;;;;;;;18.33;15.40;;;14.20;99.90;;;;;;5136045;27;20168;-74
2023/05/08 05:49:34;;;;;;;22.17;16.20;;;14.30;99.90;;;;;;5135664;27;20183;-74
2023/05/08 05:52:00;;;;;;;18.08;15.50;;;14.40;99.90;;;;;;5135877;27;20200;-74
2023/05/08 05:54:26;;;;;;;18.38;15.38;;;14.50;99.90;;;;;;5137284;27;20179;-75
2023/05/08 05:56:51;;;;;;;18.20;15.30;;;14.50;99.90;;;;;;5135960;27;20235;-74
2023/05/08 05:59:17;;;;;;;20.88;16.42;;;14.60;99.90;;;;;;5140412;27;20164;-74
2023/05/08 06:01:43;;;;;;;18.58;15.52;;;14.60;99.90;;;;;;5140655;27;20214;-74
2023/05/08 06:04:09;;;;;;;22.50;15.63;;;14.70;99.90;;;;;;5138547;27;20168;-74
2023/05/08 06:06:35;;;;;;;17.60;14.30;;;14.80;99.90;;;;;;5138091;27;20183;-74
2023/05/08 06:09:01;;;;;;;17.27;14.95;;;14.80;99.90;;;;;;5137939;27;20172;-75
2023/05/08 06:11:27;;;;;;;18.27;12.60;;;15.00;99.90;;;;;;5136619;27;20199;-74
2023/05/08 06:13:52;;;;;;;16.52;13.27;;;15.10;99.90;;;;;;5137140;27;20168;-72
2023/05/08 06:16:21;;;;;;;18.10;14.38;;;15.40;99.90;;;;;;5135564;27;20199;-72
2023/05/08 06:18:47;;;;;;;17.27;13.60;;;15.40;99.90;;;;;;5135442;27;20640;-72
2023/05/08 06:21:13;;;;;;;14.15;12.18;;;15.50;99.90;;;;;;5135107;27;20202;-72
2023/05/08 06:23:39;;;;;;;14.23;12.40;;;15.50;99.90;;;;;;5135310;27;20187;-72
2023/05/08 06:26:05;;;;;;;16.40;12.43;;;15.60;99.90;;;;;;5135348;27;20546;-72
2023/05/08 06:28:30;;;;;;;14.82;11.63;;;15.60;99.90;;;;;;5135076;27;20229;-72
2023/05/08 06:30:56;;;;;;;12.23;10.93;;;15.60;99.90;;;;;;5136571;27;20618;-72
2023/05/08 06:33:22;;;;;;;17.30;12.52;;;15.70;99.90;;;;;;5136919;27;20247;-72
2023/05/08 06:35:48;;;;;;;14.35;12.50;;;15.70;99.90;;;;;;5136202;27;20258;-72
2023/05/08 06:38:14;;;;;;;16.25;12.10;;;15.70;99.90;;;;;;5136942;27;20272;-72
2023/05/08 06:40:44;;;;;;;14.82;13.02;;;15.60;99.90;;;;;;5136355;27;20191;-72
2023/05/08 06:43:10;;;;;;;15.30;11.82;;;15.60;99.90;;;;;;5135002;27;20186;-73
2023/05/08 06:45:36;;;;;;;15.35;12.60;;;15.70;99.90;;;;;;5136334;27;20175;-72
2023/05/08 06:48:02;;;;;;;14.25;11.77;;;15.80;99.90;;;;;;5134661;27;20184;-72
2023/05/08 06:50:28;;;;;;;14.60;12.32;;;15.90;99.90;;;;;;5134348;27;20203;-72
2023/05/08 06:52:54;;;;;;;15.68;12.05;;;15.90;99.90;;;;;;5136322;27;20176;-72
2023/05/08 06:55:20;;;;;;;13.57;11.27;;;15.90;99.90;;;;;;5135177;27;20183;-72
2023/05/08 06:57:46;;;;;;;12.38;11.00;;;16.00;99.90;;;;;;5134490;27;20206;-72
2023/05/08 07:00:12;;;;;;;12.05;10.60;;;16.10;99.90;;;;;;5135866;27;20690;-72
2023/05/08 07:02:38;;;;;;;12.60;11.25;;;16.10;99.90;;;;;;5135586;27;20268;-72
2023/05/08 07:05:04;;;;;;;11.85;10.43;;;16.20;99.90;;;;;;5135646;27;20209;-72
2023/05/08 07:07:29;;;;;;;13.95;10.30;;;16.20;99.90;;;;;;5134582;27;20263;-72
2023/05/08 07:09:55;;;;;;;10.75;9.50;;;16.20;99.90;;;;;;5135666;27;20637;-72
2023/05/08 07:12:21;;;;;;;11.38;8.73;;;16.10;99.90;;;;;;5134463;27;20574;-72
2023/05/08 07:14:47;;;;;;;12.25;8.88;;;16.10;99.90;;;;;;5134396;27;20262;-72
2023/05/08 07:17:12;;;;;;;11.98;9.38;;;16.00;99.90;;;;;;5136541;27;20203;-72
2023/05/08 07:19:38;;;;;;;11.88;9.80;;;15.80;99.90;;;;;;5136392;27;20245;-72
2023/05/08 07:22:04;;;;;;;8.90;7.72;;;15.80;99.90;;;;;;5134776;27;20212;-72
2023/05/08 07:24:31;;;;;;;11.85;8.73;;;15.80;99.90;;;;;;5134777;27;20648;-72
2023/05/08 07:26:58;;;;;;;11.02;8.88;;;15.80;99.90;;;;;;5135830;27;20533;-72
2023/05/08 07:29:25;;;;;;;10.45;8.98;;;15.80;99.90;;;;;;5135444;27;20211;-72
2023/05/08 07:31:51;;;;;;;12.43;8.35;;;15.90;99.90;;;;;;5134440;27;20208;-72
2023/05/08 07:34:17;;;;;;;10.68;8.63;;;15.80;99.90;;;;;;5134011;27;20229;-72
2023/05/08 07:36:44;;;;;;;12.27;9.85;;;15.90;99.90;;;;;;5135496;27;20203;-72
2023/05/08 07:39:09;;;;;;;11.85;8.68;;;16.00;99.90;;;;;;5134053;27;20176;-72
2023/05/08 07:41:39;;;;;;;9.98;8.73;;;16.10;99.90;;;;;;5135062;27;20190;-72
2023/05/08 07:44:05;;;;;;;11.07;9.40;;;16.30;99.90;;;;;;5133983;27;20175;-72
2023/05/08 07:46:31;;;;;;;10.95;8.48;;;16.50;99.90;;;;;;5135085;27;20528;-70
2023/05/08 07:48:57;;;;;;;10.35;7.93;;;16.70;99.90;;;;;;5135127;27;20167;-70
2023/05/08 07:51:22;;;;;;;9.38;8.20;;;16.80;99.90;;;;;;5135062;27;20199;-70
2023/05/08 07:53:49;;;;;;;11.63;8.75;;;16.80;99.90;;;;;;5135525;27;20159;-72
2023/05/08 07:56:15;;;;;;;9.20;8.20;;;16.80;99.90;;;;;;5133899;27;20199;-74
2023/05/08 07:58:41;;;;;;;10.07;8.63;;;16.90;99.90;;;;;;5135449;27;20217;-75
2023/05/08 08:01:07;;;;;;;11.27;8.30;;;16.90;99.90;;;;;;5134903;27;20211;-70
2023/05/08 08:03:33;;;;;;;9.10;7.88;;;17.00;99.90;;;;;;5135301;27;20160;-70
2023/05/08 08:05:58;;;;;;;9.68;8.05;;;17.10;99.90;;;;;;5120968;27;20185;-70
2023/05/08 08:08:24;;;;;;;11.02;9.13;;;17.20;99.90;;;;;;5114202;28;20173;-70
2023/05/08 08:10:50;;;;;;;10.40;9.27;;;17.20;99.90;;;;;;5114201;28;20246;-70
2023/05/08 08:13:16;;;;;;;10.68;8.65;;;17.20;99.90;;;;;;5114286;28;20156;-70
2023/05/08 08:15:42;;;;;;;9.20;8.20;;;17.30;99.90;;;;;;5112774;28;20179;-70
2023/05/08 08:18:08;;;;;;;11.13;9.15;;;17.30;99.90;;;;;;5112812;28;20208;-70
2023/05/08 08:20:34;;;;;;;10.93;8.93;;;17.30;99.90;;;;;;5112544;28;20199;-70
2023/05/08 08:22:59;;;;;;;10.68;9.43;;;17.30;99.90;;;;;;5114568;28;20153;-70
2023/05/08 08:25:26;;;;;;;11.65;8.93;;;17.30;99.90;;;;;;5112789;28;20647;-70
2023/05/08 08:27:53;;;;;;;10.43;9.02;;;17.30;99.90;;;;;;5113944;28;20632;-70
2023/05/08 08:30:19;;;;;;;11.55;9.38;;;17.20;99.90;;;;;;5112589;28;20576;-70
2023/05/08 08:32:44;;;;;;;10.55;8.48;;;17.20;99.90;;;;;;5112636;28;20176;-70
2023/05/08 08:35:10;;;;;;;10.52;8.95;;;17.10;99.90;;;;;;5107105;28;20668;-70
2023/05/08 08:37:36;;;;;;;9.40;7.90;;;17.20;99.90;;;;;;5093774;28;20201;-70
2023/05/08 08:40:02;;;;;;;11.50;8.55;;;17.20;99.90;;;;;;5092316;28;20185;-72
2023/05/08 08:42:28;;;;;;;10.23;8.20;;;17.20;99.90;;;;;;5093716;28;20202;-75
2023/05/08 08:44:54;;;;;;;8.15;7.30;;;17.30;99.90;;;;;;5092275;28;20173;-75
2023/05/08 08:47:26;;;;;;;9.68;8.45;;;17.20;99.90;;;;;;5094197;28;20227;-75
2023/05/08 08:49:53;;;;;;;11.45;8.18;;;17.00;99.90;;;;;;5092093;28;20173;-74
2023/05/08 08:52:34;;;;;;;10.88;8.10;;;17.00;99.90;;;;;;5093936;28;20177;-75
2023/05/08 08:55:03;;;;;;;10.35;8.23;;;17.00;99.90;;;;;;5093626;28;20244;-74
2023/05/08 08:57:33;;;;;;;9.18;7.22;;;17.00;99.90;;;;;;5092157;28;20194;-74
2023/05/08 09:00:03;;;;;;;10.55;7.25;;;17.10;99.90;;;;;;5093307;28;20689;-74
2023/05/08 09:02:30;;;;;;;9.40;7.10;;;17.10;99.90;;;;;;5092998;28;20250;-74
2023/05/08 09:04:57;;;;;;;7.03;6.10;;;17.10;99.90;;;;;;5101466;28;20180;-74
2023/05/08 09:07:23;;;;;;;7.03;6.22;;;17.10;99.90;;;;;;5134412;27;20560;-74
2023/05/08 09:09:50;;;;;;;7.13;5.93;;;17.00;99.90;;;;;;5132957;28;20208;-74
2023/05/08 09:12:16;;;;;;;6.38;5.75;;;17.20;99.90;;;;;;5133718;28;20636;-74
2023/05/08 09:14:42;;;;;;;6.60;5.50;;;17.20;99.90;;;;;;5132831;28;20195;-74
2023/05/08 09:17:08;;;;;;;6.78;5.68;;;17.20;99.90;;;;;;5134102;27;20187;-74
2023/05/08 09:19:35;;;;;;;7.13;6.18;;;17.20;99.90;;;;;;5135957;27;20172;-74
2023/05/08 09:22:02;;;;;;;6.65;5.65;;;17.40;99.90;;;;;;5137931;27;20194;-71
2023/05/08 09:24:57;;;;;;;8.57;6.80;;;17.50;99.90;;;;;;5137994;27;20168;-71
2023/05/08 09:27:24;;;;;;;9.43;6.93;;;17.50;99.90;;;;;;5137653;27;20173;-71
2023/05/08 09:30:08;;;;;;;9.43;7.10;;;17.60;99.90;;;;;;5137622;27;20213;-71
2023/05/08 09:32:39;;;;;;;10.60;8.00;;;17.70;99.90;;;;;;5137898;27;20160;-72
2023/05/08 09:35:06;;;;;;;13.02;8.10;;;17.80;99.90;;;;;;5137425;27;20179;-72
2023/05/08 09:37:32;;;;;;;10.02;8.45;;;17.80;99.90;;;;;;5137631;27;20672;-72
2023/05/08 09:40:21;;;;;;;10.02;8.20;;;17.70;99.90;;;;;;5137473;27;20258;-72
2023/05/08 09:42:49;;;;;;;10.60;7.95;;;17.80;99.90;;;;;;5137923;27;20172;-72
2023/05/08 09:45:32;;;;;;;11.63;9.55;;;17.80;99.90;;;;;;5137364;27;20175;-72
2023/05/08 09:47:58;;;;;;;14.45;9.90;;;17.50;99.90;;;;;;5137557;27;20181;-72
2023/05/08 09:50:24;;;;;;;9.65;7.88;;;17.60;99.90;;;;;;5137076;27;20702;-71
2023/05/08 09:52:50;;;;;;;8.93;7.32;;;17.60;99.90;;;;;;5137231;27;20179;-72
2023/05/08 09:55:17;;;;;;;9.60;7.70;;;17.80;99.90;;;;;;5135627;27;20176;-71
2023/05/08 09:57:57;;;;;;;9.80;7.50;;;17.60;99.90;;;;;;5135577;27;20295;-71
2023/05/08 10:00:25;;;;;;;11.52;7.88;;;17.60;99.90;;;;;;5137412;27;20188;-74
2023/05/08 10:03:00;;;;;;;7.90;6.70;;;17.70;99.90;;;;;;5135610;27;20599;-74
2023/05/08 10:05:31;;;;;;;11.40;7.07;;;17.70;99.90;;;;;;5136953;27;20262;-74
2023/05/08 10:07:58;;;;;;;11.07;8.23;;;17.70;99.90;;;;;;5137189;27;20152;-74
2023/05/08 10:10:26;;;;;;;9.77;7.68;;;17.70;99.90;;;;;;5136814;27;20188;-74
2023/05/08 10:12:56;;;;;;;9.63;8.25;;;17.50;99.90;;;;;;5136854;27;20176;-74
2023/05/08 10:15:28;;;;;;;9.48;7.70;;;17.50;99.90;;;;;;5136839;27;20164;-74
2023/05/08 10:18:01;;;;;;;9.32;7.32;;;17.40;99.90;;;;;;5137032;27;20219;-74
2023/05/08 10:20:29;;;;;;;11.43;8.10;;;17.30;99.90;;;;;;5136510;27;20266;-74
2023/05/08 10:22:56;;;;;;;10.48;7.18;;;17.30;99.90;;;;;;5136899;27;20195;-74
2023/05/08 10:25:23;;;;;;;8.88;7.70;;;17.30;99.90;;;;;;5136317;27;20179;-74
2023/05/08 10:28:05;;;;;;;9.63;7.10;;;17.20;99.90;;;;;;5135182;27;20186;-74
2023/05/08 10:30:35;;;;;;;10.50;7.15;;;17.30;99.90;;;;;;5136133;27;20202;-74
2023/05/08 10:33:05;;;;;;;8.73;6.75;;;17.30;99.90;;;;;;5136462;27;20178;-74
2023/05/08 10:35:31;;;;;;;12.82;6.68;;;17.40;99.90;;;;;;5136271;27;20180;-74
2023/05/08 10:37:58;;;;;;;8.32;5.95;;;17.40;99.90;;;;;;5136455;27;20192;-73
2023/05/08 10:40:24;;;;;;;6.85;6.15;;;17.50;99.90;;;;;;5135646;27;20538;-74
2023/05/08 10:42:50;;;;;;;9.07;5.97;;;17.50;99.90;;;;;;5137155;27;20167;-74
2023/05/08 10:45:16;;;;;;;10.35;6.03;;;17.60;99.90;;;;;;5135296;27;20543;-74
2023/05/08 10:48:10;;;;;;;7.65;5.75;;;17.60;99.90;;;;;;5136593;27;20531;-73
2023/05/08 10:50:46;;;;;;;6.55;5.43;;;17.70;99.90;;;;;;5136340;27;20691;-74
2023/05/08 10:53:21;;;;;;;9.50;5.85;;;17.90;99.90;;;;;;5134807;27;20191;-74
2023/05/08 10:55:50;;;;;;;9.52;6.22;;;18.00;99.90;;;;;;5134865;27;20175;-74
2023/05/08 10:58:22;;;;;;;9.73;5.75;;;18.10;99.90;;;;;;5134402;27;20207;-74
2023/05/08 11:00:51;;;;;;;6.85;5.50;;;18.10;99.90;;;;;;5134846;27;20236;-74
2023/05/08 11:03:22;;;;;;;7.85;5.97;;;18.20;99.90;;;;;;5135726;27;20164;-75
2023/05/08 11:05:49;;;;;;;6.70;5.43;;;18.20;99.90;;;;;;5134631;27;20578;-71
2023/05/08 11:08:23;;;;;;;5.65;4.88;;;18.20;99.90;;;;;;5135615;27;20172;-72
2023/05/08 11:11:26;;;;;;;6.65;5.80;;;18.30;99.90;;;;;;5135699;27;20267;-72
2023/05/08 11:14:07;;;;;;;8.65;6.07;;;18.20;99.90;;;;;;5134261;27;20172;-72
2023/05/08 11:16:55;;;;;;;7.22;5.60;;;18.20;99.90;;;;;;5135467;27;20195;-72
2023/05/08 11:19:25;;;;;;;6.90;5.43;;;18.10;99.90;;;;;;5135568;27;20220;-72
2023/05/08 11:22:15;;;;;;;7.72;6.05;;;18.00;99.90;;;;;;5135276;27;20192;-72
2023/05/08 11:24:54;;;;;;;7.45;5.95;;;18.00;99.90;;;;;;5134116;27;20556;-73
2023/05/08 11:27:37;;;;;;;10.30;5.53;;;18.10;99.90;;;;;;5133981;27;20171;-74
2023/05/08 11:30:24;;;;;;;7.32;5.55;;;18.20;99.90;;;;;;5135468;27;20246;-74
2023/05/08 11:33:13;;;;;;;6.45;5.32;;;18.20;99.90;;;;;;5136042;27;20209;-76
2023/05/08 11:35:46;;;;;;;7.88;5.90;;;18.20;99.90;;;;;;5134179;27;20183;-76
2023/05/08 11:38:30;;;;;;;6.63;5.35;;;18.20;99.90;;;;;;5134760;27;20586;-72
2023/05/08 11:40:58;;;;;;;6.38;5.55;;;18.20;99.90;;;;;;5133738;27;20223;-73
2023/05/08 11:43:35;;;;;;;8.43;5.78;;;18.30;99.90;;;;;;5134782;27;20168;-73
2023/05/08 11:46:07;;;;;;;9.10;5.68;;;18.20;99.90;;;;;;5135122;27;20707;-71
2023/05/08 11:48:34;;;;;;;7.00;5.40;;;18.10;99.90;;;;;;5133451;27;20186;-71
2023/05/08 11:51:01;;;;;;;6.90;5.72;;;18.00;99.90;;;;;;5133532;27;20192;-75
2023/05/08 11:53:30;;;;;;;6.90;5.13;;;18.10;99.90;;;;;;5135066;27;20182;-74
2023/05/08 11:55:56;;;;;;;5.95;5.35;;;18.20;99.90;;;;;;5137938;27;20160;-71
2023/05/08 11:58:22;;;;;;;6.07;5.05;;;18.10;99.90;;;;;;5135712;27;20206;-73
2023/05/08 12:00:49;;;;;;;9.57;5.68;;;18.10;99.90;;;;;;5134300;27;20247;-72
2023/05/08 12:03:17;;;;;;;5.32;4.75;;;18.10;99.90;;;;;;5136542;27;20164;-70
2023/05/08 12:05:43;;;;;;;5.90;4.88;;;18.10;99.90;;;;;;5124194;27;20188;-71
2023/05/08 12:08:09;;;;;;;5.88;5.15;;;18.10;99.90;;;;;;5115588;28;20172;-76
2023/05/08 12:10:40;;;;;;;5.78;5.20;;;18.20;99.90;;;;;;5114924;28;20284;-75
2023/05/08 12:13:20;;;;;;;5.57;4.95;;;18.30;99.90;;;;;;5117466;28;20173;-73
2023/05/08 12:15:47;;;;;;;7.53;4.97;;;18.20;99.90;;;;;;5116947;28;20211;-71
2023/05/08 12:18:16;;;;;;;7.00;5.15;;;18.20;99.90;;;;;;5116151;28;20224;-74
2023/05/08 12:20:46;;;;;;;6.25;4.90;;;18.10;99.90;;;;;;5097183;28;20215;-75
2023/05/08 12:23:20;;;;;;;7.43;5.35;;;18.20;99.90;;;;;;5114708;28;20164;-74
2023/05/08 12:26:04;;;;;;;6.70;5.55;;;18.30;99.90;;;;;;5113229;28;20267;-72
2023/05/08 12:28:33;;;;;;;7.45;5.47;;;18.40;99.90;;;;;;5114069;28;20176;-74
2023/05/08 12:30:59;;;;;;;6.88;4.95;;;18.50;99.90;;;;;;5114505;28;20581;-74
2023/05/08 12:33:27;;;;;;;6.82;5.32;;;18.60;99.90;;;;;;5114974;28;20240;-76
2023/05/08 12:35:54;;;;;;;6.32;5.18;;;18.70;99.90;;;;;;5126960;28;20176;-75
2023/05/08 12:38:27;;;;;;;7.47;5.07;;;18.90;99.90;;;;;;5134894;27;20195;-76
2023/05/08 12:40:54;;;;;;;5.90;5.20;;;19.00;99.90;;;;;;5134683;28;20622;-71
2023/05/08 12:43:29;;;;;;;6.40;5.18;;;19.00;99.90;;;;;;5139056;27;20164;-71
2023/05/08 12:45:55;;;;;;;6.78;4.63;;;19.20;99.90;;;;;;5133513;28;20171;-72